sensor_id;sensor_type;location;lat;lon;timestamp;temperature;humidity
61151;DHT22;47029;50.994;2.876;2022-10-13T00:01:37;13.60;99.90
61151;DHT22;47029;50.994;2.876;2022-10-13T00:04:02;13.60;99.90
61151;DHT22;47029;50.994;2.876;2022-10-13T00:06:28;13.60;99.90
61151;DHT22;47029;50.994;2.876;2022-10-13T00:08:54;13.70;99.90
61151;DHT22;47029;50.994;2.876;2022-10-13T00:11:26;13.60;99.90
61151;DHT22;47029;50.994;2.876;2022-10-13T00:13:56;13.70;99.90
61151;DHT22;47029;50.994;2.876;2022-10-13T00:16:22;13.70;99.90
61151;DHT22;47029;50.994;2.876;2022-10-13T00:18:49;13.80;99.90
61151;DHT22;47029;50.994;2.876;2022-10-13T00:21:18;13.60;99.90
61151;DHT22;47029;50.994;2.876;2022-10-13T00:23:44;13.70;99.90
61151;DHT22;47029;50.994;2.876;2022-10-13T00:26:12;13.80;99.90
61151;DHT22;47029;50.994;2.876;2022-10-13T00:28:39;13.70;99.90
61151;DHT22;47029;50.994;2.876;2022-10-13T00:31:26;13.80;99.90
61151;DHT22;47029;50.994;2.876;2022-10-13T00:33:52;13.80;99.90
61151;DHT22;47029;50.994;2.876;2022-10-13T00:36:19;13.90;99.90
61151;DHT22;47029;50.994;2.876;2022-10-13T00:38:45;13.90;99.90
61151;DHT22;47029;50.994;2.876;2022-10-13T00:41:12;13.90;99.90
61151;DHT22;47029;50.994;2.876;2022-10-13T00:46:14;13.90;99.90
61151;DHT22;47029;50.994;2.876;2022-10-13T00:48:41;14.00;99.90
61151;DHT22;47029;50.994;2.876;2022-10-13T00:51:09;14.20;99.90
61151;DHT22;47029;50.994;2.876;2022-10-13T00:53:37;14.40;99.90
61151;DHT22;47029;50.994;2.876;2022-10-13T00:56:07;14.50;99.90
61151;DHT22;47029;50.994;2.876;2022-10-13T00:58:35;14.50;99.90
61151;DHT22;47029;50.994;2.876;2022-10-13T01:01:04;14.30;99.90
61151;DHT22;47029;50.994;2.876;2022-10-13T01:03:31;14.30;99.90
61151;DHT22;47029;50.994;2.876;2022-10-13T01:05:59;14.40;99.90
61151;DHT22;47029;50.994;2.876;2022-10-13T01:08:27;14.20;99.90
61151;DHT22;47029;50.994;2.876;2022-10-13T01:13:52;14.40;99.90
61151;DHT22;47029;50.994;2.876;2022-10-13T01:30:20;14.00;99.90
61151;DHT22;47029;50.994;2.876;2022-10-13T01:33:04;14.20;99.90
61151;DHT22;47029;50.994;2.876;2022-10-13T01:35:42;14.20;99.90
61151;DHT22;47029;50.994;2.876;2022-10-13T01:43:43;14.00;99.90
61151;DHT22;47029;50.994;2.876;2022-10-13T01:46:20;14.10;99.90
61151;DHT22;47029;50.994;2.876;2022-10-13T01:48:48;14.00;99.90
61151;DHT22;47029;50.994;2.876;2022-10-13T01:51:17;14.00;99.90
61151;DHT22;47029;50.994;2.876;2022-10-13T01:53:45;14.10;99.90
61151;DHT22;47029;50.994;2.876;2022-10-13T01:56:12;14.10;99.90
61151;DHT22;47029;50.994;2.876;2022-10-13T01:58:40;14.00;99.90
61151;DHT22;47029;50.994;2.876;2022-10-13T02:03:52;14.20;99.90
61151;DHT22;47029;50.994;2.876;2022-10-13T02:06:32;14.50;99.90
61151;DHT22;47029;50.994;2.876;2022-10-13T02:12:15;14.40;99.90
61151;DHT22;47029;50.994;2.876;2022-10-13T02:14:43;14.10;99.90
61151;DHT22;47029;50.994;2.876;2022-10-13T02:17:11;14.00;99.90
61151;DHT22;47029;50.994;2.876;2022-10-13T02:19:37;14.00;99.90
61151;DHT22;47029;50.994;2.876;2022-10-13T02:22:05;13.80;99.90
61151;DHT22;47029;50.994;2.876;2022-10-13T02:24:33;13.80;99.90
61151;DHT22;47029;50.994;2.876;2022-10-13T02:26:59;13.80;99.90
61151;DHT22;47029;50.994;2.876;2022-10-13T02:29:25;14.00;99.90
61151;DHT22;47029;50.994;2.876;2022-10-13T02:31:51;13.80;99.90
61151;DHT22;47029;50.994;2.876;2022-10-13T02:34:19;13.90;99.90
61151;DHT22;47029;50.994;2.876;2022-10-13T02:36:45;13.90;99.90
61151;DHT22;47029;50.994;2.876;2022-10-13T02:39:11;13.90;99.90
61151;DHT22;47029;50.994;2.876;2022-10-13T02:41:37;13.70;99.90
61151;DHT22;47029;50.994;2.876;2022-10-13T02:44:06;14.00;99.90
61151;DHT22;47029;50.994;2.876;2022-10-13T02:46:32;14.20;99.90
61151;DHT22;47029;50.994;2.876;2022-10-13T02:48:58;14.20;99.90
61151;DHT22;47029;50.994;2.876;2022-10-13T02:51:26;14.10;99.90
61151;DHT22;47029;50.994;2.876;2022-10-13T02:53:52;13.90;99.90
61151;DHT22;47029;50.994;2.876;2022-10-13T02:56:17;13.80;99.90
61151;DHT22;47029;50.994;2.876;2022-10-13T02:58:44;13.90;99.90
61151;DHT22;47029;50.994;2.876;2022-10-13T03:01:13;13.90;99.90
61151;DHT22;47029;50.994;2.876;2022-10-13T03:03:40;13.90;99.90
61151;DHT22;47029;50.994;2.876;2022-10-13T03:06:06;13.90;99.90
61151;DHT22;47029;50.994;2.876;2022-10-13T03:08:34;13.90;99.90
61151;DHT22;47029;50.994;2.876;2022-10-13T03:11:00;13.90;99.90
61151;DHT22;47029;50.994;2.876;2022-10-13T03:13:26;14.00;99.90
61151;DHT22;47029;50.994;2.876;2022-10-13T03:15:52;14.10;99.90
61151;DHT22;47029;50.994;2.876;2022-10-13T03:18:18;13.80;99.90
61151;DHT22;47029;50.994;2.876;2022-10-13T03:20:44;13.80;99.90
61151;DHT22;47029;50.994;2.876;2022-10-13T03:23:10;13.70;99.90
61151;DHT22;47029;50.994;2.876;2022-10-13T03:25:36;13.70;99.90
61151;DHT22;47029;50.994;2.876;2022-10-13T03:28:02;14.80;99.90
61151;DHT22;47029;50.994;2.876;2022-10-13T03:30:28;13.70;99.90
61151;DHT22;47029;50.994;2.876;2022-10-13T03:32:54;13.90;99.90
61151;DHT22;47029;50.994;2.876;2022-10-13T03:35:20;13.80;99.90
61151;DHT22;47029;50.994;2.876;2022-10-13T03:37:46;13.80;99.90
61151;DHT22;47029;50.994;2.876;2022-10-13T03:40:12;13.70;99.90
61151;DHT22;47029;50.994;2.876;2022-10-13T03:42:38;13.70;99.90
61151;DHT22;47029;50.994;2.876;2022-10-13T03:45:05;14.10;99.90
61151;DHT22;47029;50.994;2.876;2022-10-13T03:47:33;13.80;99.90
61151;DHT22;47029;50.994;2.876;2022-10-13T03:49:59;13.60;99.90
61151;DHT22;47029;50.994;2.876;2022-10-13T03:52:25;13.60;99.90
61151;DHT22;47029;50.994;2.876;2022-10-13T03:54:51;13.60;99.90
61151;DHT22;47029;50.994;2.876;2022-10-13T03:57:17;13.60;99.90
61151;DHT22;47029;50.994;2.876;2022-10-13T03:59:43;13.60;99.90
61151;DHT22;47029;50.994;2.876;2022-10-13T04:02:09;13.60;99.90
61151;DHT22;47029;50.994;2.876;2022-10-13T04:04:36;13.60;99.90
61151;DHT22;47029;50.994;2.876;2022-10-13T04:07:03;13.70;99.90
61151;DHT22;47029;50.994;2.876;2022-10-13T04:09:32;13.60;99.90
61151;DHT22;47029;50.994;2.876;2022-10-13T04:11:58;13.40;99.90
61151;DHT22;47029;50.994;2.876;2022-10-13T04:14:24;13.60;99.90
61151;DHT22;47029;50.994;2.876;2022-10-13T04:16:51;13.70;99.90
61151;DHT22;47029;50.994;2.876;2022-10-13T04:19:16;13.70;99.90
61151;DHT22;47029;50.994;2.876;2022-10-13T04:21:43;13.70;99.90
61151;DHT22;47029;50.994;2.876;2022-10-13T04:24:11;13.60;99.90
61151;DHT22;47029;50.994;2.876;2022-10-13T04:26:38;13.60;99.90
61151;DHT22;47029;50.994;2.876;2022-10-13T04:29:06;13.50;99.90
61151;DHT22;47029;50.994;2.876;2022-10-13T04:31:34;13.50;99.90
61151;DHT22;47029;50.994;2.876;2022-10-13T04:34:00;13.60;99.90
61151;DHT22;47029;50.994;2.876;2022-10-13T04:36:26;13.50;99.90
61151;DHT22;47029;50.994;2.876;2022-10-13T04:38:52;13.50;99.90
61151;DHT22;47029;50.994;2.876;2022-10-13T04:41:19;13.60;99.90
61151;DHT22;47029;50.994;2.876;2022-10-13T04:43:49;13.60;99.90
61151;DHT22;47029;50.994;2.876;2022-10-13T04:46:21;13.50;99.90
61151;DHT22;47029;50.994;2.876;2022-10-13T04:48:49;13.50;99.90
61151;DHT22;47029;50.994;2.876;2022-10-13T04:51:19;13.50;99.90
61151;DHT22;47029;50.994;2.876;2022-10-13T04:53:45;13.50;99.90
61151;DHT22;47029;50.994;2.876;2022-10-13T04:56:14;13.40;99.90
61151;DHT22;47029;50.994;2.876;2022-10-13T04:58:42;13.40;99.90
61151;DHT22;47029;50.994;2.876;2022-10-13T05:01:14;13.50;99.90
61151;DHT22;47029;50.994;2.876;2022-10-13T05:03:41;13.50;99.90
61151;DHT22;47029;50.994;2.876;2022-10-13T05:06:13;13.50;99.90
61151;DHT22;47029;50.994;2.876;2022-10-13T05:08:40;13.60;99.90
61151;DHT22;47029;50.994;2.876;2022-10-13T05:11:06;13.60;99.90
61151;DHT22;47029;50.994;2.876;2022-10-13T05:13:32;13.50;99.90
61151;DHT22;47029;50.994;2.876;2022-10-13T05:15:58;13.40;99.90
61151;DHT22;47029;50.994;2.876;2022-10-13T05:18:24;13.40;99.90
61151;DHT22;47029;50.994;2.876;2022-10-13T05:20:50;13.40;99.90
61151;DHT22;47029;50.994;2.876;2022-10-13T05:23:15;13.50;99.90
61151;DHT22;47029;50.994;2.876;2022-10-13T05:25:44;13.60;99.90
61151;DHT22;47029;50.994;2.876;2022-10-13T05:28:09;13.40;99.90
61151;DHT22;47029;50.994;2.876;2022-10-13T05:30:38;13.40;99.90
61151;DHT22;47029;50.994;2.876;2022-10-13T05:33:04;13.40;99.90
61151;DHT22;47029;50.994;2.876;2022-10-13T05:35:30;13.40;99.90
61151;DHT22;47029;50.994;2.876;2022-10-13T05:37:56;13.30;99.90
61151;DHT22;47029;50.994;2.876;2022-10-13T05:40:22;13.30;99.90
61151;DHT22;47029;50.994;2.876;2022-10-13T05:42:49;14.40;99.90
61151;DHT22;47029;50.994;2.876;2022-10-13T05:45:15;13.30;99.90
61151;DHT22;47029;50.994;2.876;2022-10-13T05:47:41;13.20;99.90
61151;DHT22;47029;50.994;2.876;2022-10-13T05:50:08;13.20;99.90
61151;DHT22;47029;50.994;2.876;2022-10-13T05:52:34;13.20;99.90
61151;DHT22;47029;50.994;2.876;2022-10-13T05:55:02;13.10;99.90
61151;DHT22;47029;50.994;2.876;2022-10-13T05:57:32;13.10;99.90
61151;DHT22;47029;50.994;2.876;2022-10-13T06:00:06;13.20;99.90
61151;DHT22;47029;50.994;2.876;2022-10-13T06:02:40;13.30;99.90
61151;DHT22;47029;50.994;2.876;2022-10-13T06:05:11;13.30;99.90
61151;DHT22;47029;50.994;2.876;2022-10-13T06:07:38;13.30;99.90
61151;DHT22;47029;50.994;2.876;2022-10-13T06:10:04;13.20;99.90
61151;DHT22;47029;50.994;2.876;2022-10-13T06:12:30;13.30;99.90
61151;DHT22;47029;50.994;2.876;2022-10-13T06:14:56;13.30;99.90
61151;DHT22;47029;50.994;2.876;2022-10-13T06:17:22;13.30;99.90
61151;DHT22;47029;50.994;2.876;2022-10-13T06:19:47;13.20;99.90
61151;DHT22;47029;50.994;2.876;2022-10-13T06:22:14;13.20;99.90
61151;DHT22;47029;50.994;2.876;2022-10-13T06:24:40;13.20;99.90
61151;DHT22;47029;50.994;2.876;2022-10-13T06:27:06;13.20;99.90
61151;DHT22;47029;50.994;2.876;2022-10-13T06:29:31;13.20;99.90
61151;DHT22;47029;50.994;2.876;2022-10-13T06:31:58;13.20;99.90
61151;DHT22;47029;50.994;2.876;2022-10-13T06:34:24;13.20;99.90
61151;DHT22;47029;50.994;2.876;2022-10-13T06:36:50;13.20;99.90
61151;DHT22;47029;50.994;2.876;2022-10-13T06:39:16;13.60;99.90
61151;DHT22;47029;50.994;2.876;2022-10-13T06:41:42;13.40;99.90
61151;DHT22;47029;50.994;2.876;2022-10-13T06:44:08;13.10;99.90
61151;DHT22;47029;50.994;2.876;2022-10-13T06:46:35;13.10;99.90
61151;DHT22;47029;50.994;2.876;2022-10-13T06:49:01;13.20;99.90
61151;DHT22;47029;50.994;2.876;2022-10-13T06:51:27;13.10;99.90
61151;DHT22;47029;50.994;2.876;2022-10-13T06:53:55;13.10;99.90
61151;DHT22;47029;50.994;2.876;2022-10-13T06:56:21;13.00;99.90
61151;DHT22;47029;50.994;2.876;2022-10-13T06:58:47;13.10;99.90
61151;DHT22;47029;50.994;2.876;2022-10-13T07:01:13;13.10;99.90
61151;DHT22;47029;50.994;2.876;2022-10-13T07:03:39;13.20;99.90
61151;DHT22;47029;50.994;2.876;2022-10-13T07:06:06;13.70;99.90
61151;DHT22;47029;50.994;2.876;2022-10-13T07:08:32;13.30;99.90
61151;DHT22;47029;50.994;2.876;2022-10-13T07:11:05;13.40;99.90
61151;DHT22;47029;50.994;2.876;2022-10-13T07:13:31;13.40;99.90
61151;DHT22;47029;50.994;2.876;2022-10-13T07:15:57;13.40;99.90
61151;DHT22;47029;50.994;2.876;2022-10-13T07:18:22;13.30;99.90
61151;DHT22;47029;50.994;2.876;2022-10-13T07:20:49;13.30;99.90
61151;DHT22;47029;50.994;2.876;2022-10-13T07:23:14;13.20;99.90
61151;DHT22;47029;50.994;2.876;2022-10-13T07:25:40;13.40;99.90
61151;DHT22;47029;50.994;2.876;2022-10-13T07:28:06;13.30;99.90
61151;DHT22;47029;50.994;2.876;2022-10-13T07:30:32;13.40;99.90
61151;DHT22;47029;50.994;2.876;2022-10-13T07:32:58;13.40;99.90
61151;DHT22;47029;50.994;2.876;2022-10-13T07:35:24;13.30;99.90
61151;DHT22;47029;50.994;2.876;2022-10-13T07:37:53;13.50;99.90
61151;DHT22;47029;50.994;2.876;2022-10-13T07:40:19;13.50;99.90
61151;DHT22;47029;50.994;2.876;2022-10-13T07:42:45;13.50;99.90
61151;DHT22;47029;50.994;2.876;2022-10-13T07:45:11;13.50;99.90
61151;DHT22;47029;50.994;2.876;2022-10-13T07:47:37;13.50;99.90
61151;DHT22;47029;50.994;2.876;2022-10-13T07:50:03;13.60;99.90
61151;DHT22;47029;50.994;2.876;2022-10-13T07:52:30;13.60;99.90
61151;DHT22;47029;50.994;2.876;2022-10-13T07:54:56;13.60;99.90
61151;DHT22;47029;50.994;2.876;2022-10-13T07:57:25;13.60;99.90
61151;DHT22;47029;50.994;2.876;2022-10-13T07:59:51;13.50;99.90
61151;DHT22;47029;50.994;2.876;2022-10-13T08:02:16;13.10;99.90
61151;DHT22;47029;50.994;2.876;2022-10-13T08:04:43;13.50;99.90
61151;DHT22;47029;50.994;2.876;2022-10-13T08:07:09;13.40;99.90
61151;DHT22;47029;50.994;2.876;2022-10-13T08:09:36;13.30;99.90
61151;DHT22;47029;50.994;2.876;2022-10-13T08:12:02;13.40;99.90
61151;DHT22;47029;50.994;2.876;2022-10-13T08:14:29;13.50;99.90
61151;DHT22;47029;50.994;2.876;2022-10-13T08:16:56;13.50;99.90
61151;DHT22;47029;50.994;2.876;2022-10-13T08:19:23;13.60;99.90
61151;DHT22;47029;50.994;2.876;2022-10-13T08:21:51;13.70;99.90
61151;DHT22;47029;50.994;2.876;2022-10-13T08:24:17;13.80;99.90
61151;DHT22;47029;50.994;2.876;2022-10-13T08:26:45;13.90;99.90
61151;DHT22;47029;50.994;2.876;2022-10-13T08:29:12;14.00;99.90
61151;DHT22;47029;50.994;2.876;2022-10-13T08:31:38;14.00;99.90
61151;DHT22;47029;50.994;2.876;2022-10-13T08:34:04;14.20;99.90
61151;DHT22;47029;50.994;2.876;2022-10-13T08:36:30;14.00;99.90
61151;DHT22;47029;50.994;2.876;2022-10-13T08:38:56;14.30;99.90
61151;DHT22;47029;50.994;2.876;2022-10-13T08:41:25;14.20;99.90
61151;DHT22;47029;50.994;2.876;2022-10-13T08:44:00;14.20;99.90
61151;DHT22;47029;50.994;2.876;2022-10-13T08:46:32;14.10;99.90
61151;DHT22;47029;50.994;2.876;2022-10-13T08:49:02;14.20;99.90
61151;DHT22;47029;50.994;2.876;2022-10-13T08:51:29;14.10;99.90
61151;DHT22;47029;50.994;2.876;2022-10-13T08:53:55;14.20;99.90
61151;DHT22;47029;50.994;2.876;2022-10-13T08:56:27;14.20;99.90
61151;DHT22;47029;50.994;2.876;2022-10-13T08:58:55;14.40;99.90
61151;DHT22;47029;50.994;2.876;2022-10-13T09:06:26;14.10;99.90
61151;DHT22;47029;50.994;2.876;2022-10-13T09:08:55;14.20;99.90
61151;DHT22;47029;50.994;2.876;2022-10-13T09:11:21;14.20;99.90
61151;DHT22;47029;50.994;2.876;2022-10-13T09:13:47;14.10;99.90
61151;DHT22;47029;50.994;2.876;2022-10-13T09:16:13;14.00;99.90
61151;DHT22;47029;50.994;2.876;2022-10-13T09:18:39;14.00;99.90
61151;DHT22;47029;50.994;2.876;2022-10-13T09:21:22;13.30;99.90
61151;DHT22;47029;50.994;2.876;2022-10-13T09:23:50;14.30;99.90
61151;DHT22;47029;50.994;2.876;2022-10-13T09:26:23;14.30;99.90
61151;DHT22;47029;50.994;2.876;2022-10-13T09:28:50;14.30;99.90
61151;DHT22;47029;50.994;2.876;2022-10-13T09:31:23;14.20;99.90
61151;DHT22;47029;50.994;2.876;2022-10-13T09:34:00;14.20;99.90
61151;DHT22;47029;50.994;2.876;2022-10-13T09:36:26;14.10;99.90
61151;DHT22;47029;50.994;2.876;2022-10-13T09:39:12;14.10;99.90
61151;DHT22;47029;50.994;2.876;2022-10-13T09:41:39;14.00;99.90
61151;DHT22;47029;50.994;2.876;2022-10-13T09:46:50;13.90;99.90
61151;DHT22;47029;50.994;2.876;2022-10-13T09:49:38;14.00;99.90
61151;DHT22;47029;50.994;2.876;2022-10-13T09:52:16;14.00;99.90
61151;DHT22;47029;50.994;2.876;2022-10-13T09:54:48;13.90;99.90
61151;DHT22;47029;50.994;2.876;2022-10-13T09:57:32;14.00;99.90
61151;DHT22;47029;50.994;2.876;2022-10-13T10:00:18;14.10;99.90
61151;DHT22;47029;50.994;2.876;2022-10-13T10:06:06;14.00;99.90
61151;DHT22;47029;50.994;2.876;2022-10-13T10:08:55;14.00;99.90
61151;DHT22;47029;50.994;2.876;2022-10-13T10:11:43;14.00;99.90
61151;DHT22;47029;50.994;2.876;2022-10-13T10:14:26;14.10;99.90
61151;DHT22;47029;50.994;2.876;2022-10-13T10:26:19;14.00;99.90
61151;DHT22;47029;50.994;2.876;2022-10-13T10:39:27;14.80;99.90
61151;DHT22;47029;50.994;2.876;2022-10-13T10:42:02;14.90;99.90
61151;DHT22;47029;50.994;2.876;2022-10-13T10:44:30;14.90;99.90
61151;DHT22;47029;50.994;2.876;2022-10-13T10:47:01;14.80;99.90
61151;DHT22;47029;50.994;2.876;2022-10-13T10:49:31;15.60;99.90
61151;DHT22;47029;50.994;2.876;2022-10-13T10:51:59;14.80;99.90
61151;DHT22;47029;50.994;2.876;2022-10-13T10:57:08;15.10;99.90
61151;DHT22;47029;50.994;2.876;2022-10-13T11:04:59;15.00;99.90
61151;DHT22;47029;50.994;2.876;2022-10-13T11:12:22;15.30;99.90
61151;DHT22;47029;50.994;2.876;2022-10-13T11:19:54;15.10;99.90
61151;DHT22;47029;50.994;2.876;2022-10-13T11:22:22;15.10;99.90
61151;DHT22;47029;50.994;2.876;2022-10-13T11:24:54;15.00;99.90
61151;DHT22;47029;50.994;2.876;2022-10-13T11:27:23;15.00;99.90
61151;DHT22;47029;50.994;2.876;2022-10-13T11:29:53;15.00;99.90
61151;DHT22;47029;50.994;2.876;2022-10-13T11:54:08;15.20;99.90
61151;DHT22;47029;50.994;2.876;2022-10-13T11:56:53;15.10;99.90
61151;DHT22;47029;50.994;2.876;2022-10-13T11:59:33;15.10;99.90
61151;DHT22;47029;50.994;2.876;2022-10-13T12:04:35;15.20;99.90
61151;DHT22;47029;50.994;2.876;2022-10-13T12:07:03;15.40;99.90
61151;DHT22;47029;50.994;2.876;2022-10-13T12:09:31;15.20;99.90
61151;DHT22;47029;50.994;2.876;2022-10-13T12:12:12;15.20;99.90
61151;DHT22;47029;50.994;2.876;2022-10-13T12:14:41;15.20;99.90
61151;DHT22;47029;50.994;2.876;2022-10-13T12:17:22;15.20;99.90
61151;DHT22;47029;50.994;2.876;2022-10-13T12:19:49;15.30;99.90
61151;DHT22;47029;50.994;2.876;2022-10-13T12:22:22;15.40;99.90
61151;DHT22;47029;50.994;2.876;2022-10-13T12:27:28;15.20;99.90
61151;DHT22;47029;50.994;2.876;2022-10-13T12:29:57;15.20;99.90
61151;DHT22;47029;50.994;2.876;2022-10-13T12:32:26;15.30;99.90
61151;DHT22;47029;50.994;2.876;2022-10-13T12:34:52;15.30;99.90
61151;DHT22;47029;50.994;2.876;2022-10-13T12:37:29;15.40;99.90
61151;DHT22;47029;50.994;2.876;2022-10-13T12:39:58;15.30;99.90
61151;DHT22;47029;50.994;2.876;2022-10-13T12:42:30;15.30;99.90
61151;DHT22;47029;50.994;2.876;2022-10-13T12:45:00;15.30;99.90
61151;DHT22;47029;50.994;2.876;2022-10-13T12:47:48;15.60;99.90
61151;DHT22;47029;50.994;2.876;2022-10-13T12:55:28;15.50;99.90
61151;DHT22;47029;50.994;2.876;2022-10-13T12:57:54;15.50;99.90
61151;DHT22;47029;50.994;2.876;2022-10-13T13:00:28;15.40;99.90
61151;DHT22;47029;50.994;2.876;2022-10-13T13:03:03;15.40;99.90
61151;DHT22;47029;50.994;2.876;2022-10-13T13:05:38;15.40;99.90
61151;DHT22;47029;50.994;2.876;2022-10-13T13:08:18;14.60;99.90
61151;DHT22;47029;50.994;2.876;2022-10-13T13:10:55;15.60;99.90
61151;DHT22;47029;50.994;2.876;2022-10-13T13:13:22;15.70;99.90
61151;DHT22;47029;50.994;2.876;2022-10-13T13:15:49;15.70;99.90
61151;DHT22;47029;50.994;2.876;2022-10-13T13:20:47;15.80;99.90
61151;DHT22;47029;50.994;2.876;2022-10-13T13:23:12;15.90;99.90
61151;DHT22;47029;50.994;2.876;2022-10-13T13:25:39;16.10;99.90
61151;DHT22;47029;50.994;2.876;2022-10-13T13:28:10;16.10;99.90
61151;DHT22;47029;50.994;2.876;2022-10-13T13:30:37;15.90;99.90
61151;DHT22;47029;50.994;2.876;2022-10-13T13:33:03;16.00;99.90
61151;DHT22;47029;50.994;2.876;2022-10-13T13:35:29;15.90;99.90
61151;DHT22;47029;50.994;2.876;2022-10-13T13:37:55;15.70;99.90
61151;DHT22;47029;50.994;2.876;2022-10-13T13:40:25;15.60;99.90
61151;DHT22;47029;50.994;2.876;2022-10-13T13:42:52;15.60;99.90
61151;DHT22;47029;50.994;2.876;2022-10-13T13:45:22;15.60;99.90
61151;DHT22;47029;50.994;2.876;2022-10-13T13:47:49;15.50;99.90
61151;DHT22;47029;50.994;2.876;2022-10-13T13:50:19;15.50;99.90
61151;DHT22;47029;50.994;2.876;2022-10-13T13:52:47;15.60;99.90
61151;DHT22;47029;50.994;2.876;2022-10-13T13:55:13;15.60;99.90
61151;DHT22;47029;50.994;2.876;2022-10-13T13:57:41;15.60;99.90
61151;DHT22;47029;50.994;2.876;2022-10-13T14:00:09;15.70;99.90
61151;DHT22;47029;50.994;2.876;2022-10-13T14:02:35;15.70;99.90
61151;DHT22;47029;50.994;2.876;2022-10-13T14:05:01;15.70;99.90
61151;DHT22;47029;50.994;2.876;2022-10-13T14:07:27;15.60;99.90
61151;DHT22;47029;50.994;2.876;2022-10-13T14:09:53;15.70;99.90
61151;DHT22;47029;50.994;2.876;2022-10-13T14:12:19;15.90;99.90
61151;DHT22;47029;50.994;2.876;2022-10-13T14:14:45;15.90;99.90
61151;DHT22;47029;50.994;2.876;2022-10-13T14:17:11;16.00;99.90
61151;DHT22;47029;50.994;2.876;2022-10-13T14:19:37;15.00;99.90
61151;DHT22;47029;50.994;2.876;2022-10-13T14:22:03;16.00;99.90
61151;DHT22;47029;50.994;2.876;2022-10-13T14:24:29;15.90;99.90
61151;DHT22;47029;50.994;2.876;2022-10-13T14:26:55;15.90;99.90
61151;DHT22;47029;50.994;2.876;2022-10-13T14:29:20;15.90;99.90
61151;DHT22;47029;50.994;2.876;2022-10-13T14:31:47;15.90;99.90
61151;DHT22;47029;50.994;2.876;2022-10-13T14:34:15;15.90;99.90
61151;DHT22;47029;50.994;2.876;2022-10-13T14:36:41;15.80;99.90
61151;DHT22;47029;50.994;2.876;2022-10-13T14:39:07;15.70;99.90
61151;DHT22;47029;50.994;2.876;2022-10-13T14:41:33;15.80;99.90
61151;DHT22;47029;50.994;2.876;2022-10-13T14:43:59;15.80;99.90
61151;DHT22;47029;50.994;2.876;2022-10-13T14:46:25;15.70;99.90
61151;DHT22;47029;50.994;2.876;2022-10-13T14:48:51;15.60;99.90
61151;DHT22;47029;50.994;2.876;2022-10-13T14:51:19;15.60;99.90
61151;DHT22;47029;50.994;2.876;2022-10-13T14:53:46;15.60;99.90
61151;DHT22;47029;50.994;2.876;2022-10-13T14:56:25;15.60;99.90
61151;DHT22;47029;50.994;2.876;2022-10-13T14:58:52;15.70;99.90
61151;DHT22;47029;50.994;2.876;2022-10-13T15:01:19;15.60;99.90
61151;DHT22;47029;50.994;2.876;2022-10-13T15:03:45;15.70;99.90
61151;DHT22;47029;50.994;2.876;2022-10-13T15:06:19;15.70;99.90
61151;DHT22;47029;50.994;2.876;2022-10-13T15:08:46;15.70;99.90
61151;DHT22;47029;50.994;2.876;2022-10-13T15:11:14;15.70;99.90
61151;DHT22;47029;50.994;2.876;2022-10-13T15:13:40;15.80;99.90
61151;DHT22;47029;50.994;2.876;2022-10-13T15:16:07;15.70;99.90
61151;DHT22;47029;50.994;2.876;2022-10-13T15:18:33;15.60;99.90
61151;DHT22;47029;50.994;2.876;2022-10-13T15:21:01;15.50;99.90
61151;DHT22;47029;50.994;2.876;2022-10-13T15:23:27;15.50;99.90
61151;DHT22;47029;50.994;2.876;2022-10-13T15:25:58;15.50;99.90
61151;DHT22;47029;50.994;2.876;2022-10-13T15:28:26;15.60;99.90
61151;DHT22;47029;50.994;2.876;2022-10-13T15:30:53;15.60;99.90
61151;DHT22;47029;50.994;2.876;2022-10-13T15:33:20;15.60;99.90
61151;DHT22;47029;50.994;2.876;2022-10-13T15:35:48;15.60;99.90
61151;DHT22;47029;50.994;2.876;2022-10-13T15:38:15;15.60;99.90
61151;DHT22;47029;50.994;2.876;2022-10-13T15:40:41;15.50;99.90
61151;DHT22;47029;50.994;2.876;2022-10-13T15:43:08;15.50;99.90
61151;DHT22;47029;50.994;2.876;2022-10-13T15:45:34;15.50;99.90
61151;DHT22;47029;50.994;2.876;2022-10-13T15:48:00;15.50;99.90
61151;DHT22;47029;50.994;2.876;2022-10-13T15:50:27;15.50;99.90
61151;DHT22;47029;50.994;2.876;2022-10-13T15:52:53;15.50;99.90
61151;DHT22;47029;50.994;2.876;2022-10-13T15:55:18;15.50;99.90
61151;DHT22;47029;50.994;2.876;2022-10-13T15:57:44;15.50;99.90
61151;DHT22;47029;50.994;2.876;2022-10-13T16:00:13;15.50;99.90
61151;DHT22;47029;50.994;2.876;2022-10-13T16:02:42;15.50;99.90
61151;DHT22;47029;50.994;2.876;2022-10-13T16:05:10;15.50;99.90
61151;DHT22;47029;50.994;2.876;2022-10-13T16:07:38;15.50;99.90
61151;DHT22;47029;50.994;2.876;2022-10-13T16:10:05;15.40;99.90
61151;DHT22;47029;50.994;2.876;2022-10-13T16:12:31;15.40;99.90
61151;DHT22;47029;50.994;2.876;2022-10-13T16:14:57;15.30;99.90
61151;DHT22;47029;50.994;2.876;2022-10-13T16:17:23;15.30;99.90
61151;DHT22;47029;50.994;2.876;2022-10-13T16:19:49;15.30;99.90
61151;DHT22;47029;50.994;2.876;2022-10-13T16:22:15;15.30;99.90
61151;DHT22;47029;50.994;2.876;2022-10-13T16:24:41;15.30;99.90
61151;DHT22;47029;50.994;2.876;2022-10-13T16:27:07;15.30;99.90
61151;DHT22;47029;50.994;2.876;2022-10-13T16:29:33;15.30;99.90
61151;DHT22;47029;50.994;2.876;2022-10-13T16:32:02;15.40;99.90
61151;DHT22;47029;50.994;2.876;2022-10-13T16:34:27;15.40;99.90
61151;DHT22;47029;50.994;2.876;2022-10-13T16:36:53;15.30;99.90
61151;DHT22;47029;50.994;2.876;2022-10-13T16:39:19;15.40;99.90
61151;DHT22;47029;50.994;2.876;2022-10-13T16:41:46;15.30;99.90
61151;DHT22;47029;50.994;2.876;2022-10-13T16:44:12;15.30;99.90
61151;DHT22;47029;50.994;2.876;2022-10-13T16:46:38;15.30;99.90
61151;DHT22;47029;50.994;2.876;2022-10-13T16:49:04;15.40;99.90
61151;DHT22;47029;50.994;2.876;2022-10-13T16:51:30;15.50;99.90
61151;DHT22;47029;50.994;2.876;2022-10-13T16:53:56;15.40;99.90
61151;DHT22;47029;50.994;2.876;2022-10-13T16:56:23;15.30;99.90
61151;DHT22;47029;50.994;2.876;2022-10-13T16:58:56;15.50;99.90
61151;DHT22;47029;50.994;2.876;2022-10-13T17:01:23;15.50;99.90
61151;DHT22;47029;50.994;2.876;2022-10-13T17:03:50;15.40;99.90
61151;DHT22;47029;50.994;2.876;2022-10-13T17:06:17;15.40;99.90
61151;DHT22;47029;50.994;2.876;2022-10-13T17:08:44;15.40;99.90
61151;DHT22;47029;50.994;2.876;2022-10-13T17:11:22;15.40;99.90
61151;DHT22;47029;50.994;2.876;2022-10-13T17:13:48;15.50;99.90
61151;DHT22;47029;50.994;2.876;2022-10-13T17:16:18;15.50;99.90
61151;DHT22;47029;50.994;2.876;2022-10-13T17:18:45;15.40;99.90
61151;DHT22;47029;50.994;2.876;2022-10-13T17:21:13;15.40;99.90
61151;DHT22;47029;50.994;2.876;2022-10-13T17:23:40;15.30;99.90
61151;DHT22;47029;50.994;2.876;2022-10-13T17:26:08;15.30;99.90
61151;DHT22;47029;50.994;2.876;2022-10-13T17:28:36;15.30;99.90
61151;DHT22;47029;50.994;2.876;2022-10-13T17:31:04;15.40;99.90